Herbert J Plaisance — WDE6917 — position and weather

sailwx.info

Track history (hours):
 
Tides and Currents Weather Stations Pressure Air Temp Water Temp Dewpoint Dewpoint Depression Visibility Wind Speed Wind Dir Waves Ship Positions

Herbert J Plaisance

Owner: S & B Marine LLC, Harvey, LA. More information available from US FCC via Universal Licensing System and Coast Guard Vessel Documentation Center.

Last reported at 2016-Dec-29 02:32 UTC. Time now 2017-Jan-17 00:40 UTC.
Position N 29°55' W 090°08'.
Warning: this ship's position is 18 days out of date.

Length 20 m; draft 3 m.

Type: Towing. MMSI: 367386576.

Date/timePositionNaut miles runAvg speedWind from/ knotsBaromVisibWave heightAir tempDewpointWater temp
2016-Dec-29 02:32N 29°55' W 090°08'  
2016-Dec-26 16:03N 29°51' W 091°51'4 7.0
2016-Dec-26 15:33N 29°51' W 091°55'6 6.4
2016-Dec-26 14:33N 29°49' W 092°02'2 1.8
2016-Dec-26 13:33N 29°48' W 092°04'0 0.0
2016-Dec-26 12:33N 29°48' W 092°04'0 0.0
2016-Dec-26 11:33N 29°48' W 092°04'0 0.0
2016-Dec-26 10:33N 29°48' W 092°04'0 0.0
2016-Dec-26 09:33N 29°48' W 092°04'0 0.0
2016-Dec-26 08:33N 29°48' W 092°04'0 0.0
2016-Dec-26 07:33N 29°48' W 092°04'0 0.0
2016-Dec-26 06:33N 29°48' W 092°04'0 0.0
2016-Dec-26 05:33N 29°48' W 092°04'0 0.0
2016-Dec-26 04:33N 29°48' W 092°04'0 0.0
2016-Dec-26 03:33N 29°48' W 092°04'0 0.0
2016-Dec-26 02:33N 29°48' W 092°04'0 0.0
2016-Dec-26 01:33N 29°48' W 092°04'2 2.2
2016-Dec-26 00:33N 29°48' W 092°06'5 5.2
2016-Dec-25 23:33N 29°47' W 092°12'5 5.3
2016-Dec-25 22:33N 29°50' W 092°18'6 5.5
2016-Dec-25 21:33N 29°53' W 092°23'38 1.9
2016-Dec-25 01:33N 29°56' W 093°07'4 4.5
2016-Dec-25 00:33N 29°58' W 093°11'5 5.0
2016-Dec-24 23:33N 30°02' W 093°15'4 4.2
2016-Dec-24 22:33N 30°05' W 093°18'3 2.9
2016-Dec-24 21:33N 30°04' W 093°21'5 4.6
2016-Dec-24 20:33N 30°04' W 093°26'6 5.8
2016-Dec-24 19:33N 30°04' W 093°33'  
Track history (hours):
 
Tides and Currents Weather Stations Pressure Air Temp Water Temp Dewpoint Dewpoint Depression Visibility Wind Speed Wind Dir Waves Ship Positions

Herbert J Plaisance

Owner: S & B Marine LLC, Harvey, LA. More information available from US FCC via Universal Licensing System and Coast Guard Vessel Documentation Center.

Last reported at 2016-Dec-29 02:32 UTC. Time now 2017-Jan-17 00:40 UTC.
Position N 29°55' W 090°08'.
Warning: this ship's position is 18 days out of date.

Length 20 m; draft 3 m.

Type: Towing. MMSI: 367386576.

Date/timePositionNaut miles runAvg speedWind from/ knotsBaromVisibWave heightAir tempDewpointWater temp
2016-Dec-29 02:32N 29°55' W 090°08'  
2016-Dec-26 16:03N 29°51' W 091°51'4 7.0
2016-Dec-26 15:33N 29°51' W 091°55'6 6.4
2016-Dec-26 14:33N 29°49' W 092°02'2 1.8
2016-Dec-26 13:33N 29°48' W 092°04'0 0.0
2016-Dec-26 12:33N 29°48' W 092°04'0 0.0
2016-Dec-26 11:33N 29°48' W 092°04'0 0.0
2016-Dec-26 10:33N 29°48' W 092°04'0 0.0
2016-Dec-26 09:33N 29°48' W 092°04'0 0.0
2016-Dec-26 08:33N 29°48' W 092°04'0 0.0
2016-Dec-26 07:33N 29°48' W 092°04'0 0.0
2016-Dec-26 06:33N 29°48' W 092°04'0 0.0
2016-Dec-26 05:33N 29°48' W 092°04'0 0.0
2016-Dec-26 04:33N 29°48' W 092°04'0 0.0
2016-Dec-26 03:33N 29°48' W 092°04'0 0.0
2016-Dec-26 02:33N 29°48' W 092°04'0 0.0
2016-Dec-26 01:33N 29°48' W 092°04'2 2.2
2016-Dec-26 00:33N 29°48' W 092°06'5 5.2
2016-Dec-25 23:33N 29°47' W 092°12'5 5.3
2016-Dec-25 22:33N 29°50' W 092°18'6 5.5
2016-Dec-25 21:33N 29°53' W 092°23'38 1.9
2016-Dec-25 01:33N 29°56' W 093°07'4 4.5
2016-Dec-25 00:33N 29°58' W 093°11'5 5.0
2016-Dec-24 23:33N 30°02' W 093°15'4 4.2
2016-Dec-24 22:33N 30°05' W 093°18'3 2.9
2016-Dec-24 21:33N 30°04' W 093°21'5 4.6
2016-Dec-24 20:33N 30°04' W 093°26'6 5.8
2016-Dec-24 19:33N 30°04' W 093°33'  

Dump ship's entire track history